Time;durP1;ratioP1;P1;durP2;ratioP2;P2;SDS_P1;SDS_P2;PMS_P1;PMS_P2;Temp;Humidity;BMP_temperature;BMP_pressure;BME280_temperature;BME280_humidity;BME280_pressure;Samples;Min_cycle;Max_cycle;Signal;HPM_P1;HPM_P2
2021/03/07 00:00:11;;;;;;;8.73;7.82;;;7.10;42.30;;;;;;2066669;28;20038;-62
2021/03/07 00:01:32;;;;;;;10.15;8.15;;;7.10;42.50;;;;;;2072690;28;20110;-62
2021/03/07 00:02:53;;;;;;;10.88;8.60;;;7.10;42.40;;;;;;2070681;28;20651;-61
2021/03/07 00:04:14;;;;;;;12.35;8.38;;;7.10;42.50;;;;;;2068021;28;20034;-61
2021/03/07 00:05:35;;;;;;;8.95;7.82;;;7.10;42.60;;;;;;2070675;28;20483;-61
2021/03/07 00:06:56;;;;;;;8.77;7.80;;;7.00;42.60;;;;;;2066528;28;20038;-61
2021/03/07 00:08:17;;;;;;;10.25;7.85;;;7.00;42.60;;;;;;2062767;28;20129;-62
2021/03/07 00:09:38;;;;;;;8.80;7.60;;;7.00;42.70;;;;;;2067239;28;20513;-61
2021/03/07 00:10:59;;;;;;;8.95;7.03;;;7.00;42.80;;;;;;2068166;28;20144;-61
2021/03/07 00:12:19;;;;;;;8.30;6.78;;;7.00;42.80;;;;;;2067401;28;20057;-60
2021/03/07 00:13:40;;;;;;;9.82;7.35;;;7.00;42.80;;;;;;2073036;28;20895;-60
2021/03/07 00:15:04;;;;;;;8.75;7.18;;;6.90;42.80;;;;;;2070977;28;20088;-60
2021/03/07 00:16:24;;;;;;;11.95;7.18;;;6.90;43.00;;;;;;2072433;28;20052;-61
2021/03/07 00:17:47;;;;;;;6.93;6.25;;;6.90;43.00;;;;;;2070913;28;20033;-61
2021/03/07 00:19:08;;;;;;;8.82;7.45;;;6.90;43.00;;;;;;2067503;28;20034;-61
2021/03/07 00:20:29;;;;;;;8.00;7.05;;;6.90;43.10;;;;;;2066487;28;20033;-60
2021/03/07 00:21:49;;;;;;;8.15;6.38;;;6.90;43.10;;;;;;2069766;28;20483;-61
2021/03/07 00:23:11;;;;;;;8.30;7.00;;;6.90;43.10;;;;;;2068687;28;20026;-60
2021/03/07 00:24:32;;;;;;;8.40;6.78;;;6.80;43.20;;;;;;2072226;28;20033;-61
2021/03/07 00:25:52;;;;;;;9.27;6.82;;;6.80;43.30;;;;;;2067641;28;20037;-61
2021/03/07 00:27:13;;;;;;;8.70;6.63;;;6.80;43.30;;;;;;2068179;28;20022;-61
2021/03/07 00:28:34;;;;;;;9.15;7.07;;;6.80;43.40;;;;;;2070954;28;20101;-61
2021/03/07 00:29:55;;;;;;;10.02;7.35;;;6.80;43.40;;;;;;2068687;28;20080;-61
2021/03/07 00:31:16;;;;;;;9.50;7.07;;;6.80;44.10;;;;;;2072493;28;20055;-63
2021/03/07 00:32:37;;;;;;;8.90;7.38;;;6.80;43.80;;;;;;2072560;28;20034;-62
2021/03/07 00:33:58;;;;;;;8.93;7.07;;;6.80;43.70;;;;;;2072083;28;20038;-61
2021/03/07 00:35:19;;;;;;;9.98;6.80;;;6.80;43.70;;;;;;2072070;28;20034;-62
2021/03/07 00:36:40;;;;;;;8.95;6.78;;;6.70;43.80;;;;;;2070014;28;20028;-61
2021/03/07 00:38:01;;;;;;;10.55;7.07;;;6.70;43.80;;;;;;2072012;28;20038;-62
2021/03/07 00:39:22;;;;;;;9.60;6.75;;;6.70;43.80;;;;;;2072108;28;20045;-61
2021/03/07 00:40:43;;;;;;;10.07;7.70;;;6.70;43.90;;;;;;2070697;28;20029;-62
2021/03/07 00:42:04;;;;;;;9.75;7.15;;;6.70;43.90;;;;;;2071196;28;20034;-61
2021/03/07 00:43:25;;;;;;;8.27;6.85;;;6.70;43.90;;;;;;2071550;28;20530;-62
2021/03/07 00:44:46;;;;;;;8.32;7.20;;;6.70;44.10;;;;;;2068577;28;20977;-61
2021/03/07 00:46:08;;;;;;;9.25;6.97;;;6.70;44.20;;;;;;2071456;28;20052;-61
2021/03/07 00:47:28;;;;;;;10.20;6.88;;;6.70;44.20;;;;;;2073320;28;20030;-62
2021/03/07 00:48:49;;;;;;;9.13;6.90;;;6.70;44.20;;;;;;2061796;28;20022;-61
2021/03/07 00:50:22;;;;;;;9.10;7.90;;;6.70;44.30;;;;;;2063073;28;20062;-60
2021/03/07 00:51:43;;;;;;;8.38;6.57;;;6.70;44.60;;;;;;2069656;28;20037;-60
2021/03/07 00:53:04;;;;;;;9.75;6.93;;;6.60;44.30;;;;;;2066821;28;20481;-62
2021/03/07 00:54:25;;;;;;;8.15;6.70;;;6.60;44.20;;;;;;2066199;28;20629;-61
2021/03/07 00:55:46;;;;;;;7.53;6.78;;;6.60;44.40;;;;;;2070104;28;20026;-61
2021/03/07 00:57:07;;;;;;;8.65;6.63;;;6.60;44.40;;;;;;2066083;28;20034;-61
2021/03/07 00:58:27;;;;;;;8.90;6.60;;;6.60;44.40;;;;;;2068596;28;20026;-60
2021/03/07 00:59:48;;;;;;;7.18;6.50;;;6.60;44.40;;;;;;2070086;28;20057;-61
2021/03/07 01:01:09;;;;;;;8.07;6.85;;;6.60;44.40;;;;;;2072021;28;20108;-61
2021/03/07 01:02:30;;;;;;;9.45;6.72;;;6.60;44.50;;;;;;2068871;28;20469;-61
2021/03/07 01:03:51;;;;;;;7.75;6.80;;;6.60;44.50;;;;;;2072416;28;20450;-61
2021/03/07 01:05:13;;;;;;;8.73;6.80;;;6.60;44.60;;;;;;2068107;28;20376;-61
2021/03/07 01:06:34;;;;;;;7.72;6.80;;;6.60;44.80;;;;;;2073023;28;20037;-60
2021/03/07 01:07:55;;;;;;;7.53;6.47;;;6.50;44.70;;;;;;2071542;28;20165;-61
2021/03/07 01:09:16;;;;;;;7.53;6.80;;;6.50;44.70;;;;;;2058541;28;20041;-60
2021/03/07 01:10:42;;;;;;;10.13;6.75;;;6.50;44.70;;;;;;2063914;28;20105;-61
2021/03/07 01:12:04;;;;;;;10.27;7.10;;;6.50;45.00;;;;;;2066721;28;20026;-60
2021/03/07 01:13:25;;;;;;;7.53;6.13;;;6.50;44.90;;;;;;2071658;28;20080;-61
2021/03/07 01:14:46;;;;;;;8.55;6.57;;;6.50;44.80;;;;;;2065766;28;20061;-61
2021/03/07 01:16:07;;;;;;;6.93;6.22;;;6.50;44.90;;;;;;2064649;28;20041;-60
2021/03/07 01:17:27;;;;;;;8.57;6.80;;;6.50;45.00;;;;;;2072836;28;20029;-60
2021/03/07 01:18:48;;;;;;;7.10;6.40;;;6.50;45.00;;;;;;2070234;28;20026;-61
2021/03/07 01:20:13;;;;;;;7.78;6.65;;;6.50;45.20;;;;;;2064549;28;20029;-61
2021/03/07 01:21:34;;;;;;;8.75;6.90;;;6.50;45.30;;;;;;2069980;28;20018;-60
2021/03/07 01:22:56;;;;;;;7.78;6.35;;;6.50;45.10;;;;;;2071030;28;20432;-60
2021/03/07 01:24:17;;;;;;;11.85;7.32;;;6.50;45.20;;;;;;2062816;28;20069;-62
2021/03/07 01:25:38;;;;;;;8.65;7.15;;;6.40;45.20;;;;;;2064500;28;20057;-60
2021/03/07 01:26:59;;;;;;;8.65;6.97;;;6.40;45.30;;;;;;2066557;28;20482;-61
2021/03/07 01:28:20;;;;;;;8.25;7.35;;;6.40;45.30;;;;;;2069555;28;20040;-60
2021/03/07 01:29:40;;;;;;;7.25;6.55;;;6.40;45.40;;;;;;2071571;28;20026;-61
2021/03/07 01:31:02;;;;;;;8.25;7.10;;;6.40;45.50;;;;;;2072685;28;20030;-61
2021/03/07 01:32:23;;;;;;;10.00;7.05;;;6.30;45.40;;;;;;2071015;28;20232;-61
2021/03/07 01:33:43;;;;;;;8.48;7.13;;;6.40;45.60;;;;;;2068504;28;20034;-62
2021/03/07 01:35:05;;;;;;;10.70;7.57;;;6.30;45.50;;;;;;2070875;28;20042;-61
2021/03/07 01:36:26;;;;;;;8.80;7.43;;;6.30;45.70;;;;;;2071207;28;20030;-61
2021/03/07 01:37:48;;;;;;;8.43;7.25;;;6.30;45.50;;;;;;2069071;28;20041;-61
2021/03/07 01:39:09;;;;;;;7.45;6.70;;;6.30;45.70;;;;;;2070096;28;20053;-61
2021/03/07 01:40:43;;;;;;;9.02;6.95;;;6.30;45.90;;;;;;2067843;28;20040;-61
2021/03/07 01:42:10;;;;;;;7.18;6.32;;;6.30;46.40;;;;;;2068547;28;20057;-60
2021/03/07 01:43:31;;;;;;;9.98;7.13;;;6.30;46.20;;;;;;2069492;28;20492;-61
2021/03/07 01:44:52;;;;;;;9.23;6.50;;;6.30;45.80;;;;;;2066709;28;20058;-61
2021/03/07 01:46:16;;;;;;;7.85;6.60;;;6.30;45.90;;;;;;2071962;28;20076;-61
2021/03/07 01:47:42;;;;;;;8.13;7.32;;;6.30;46.00;;;;;;2071137;28;20037;-61
2021/03/07 01:49:03;;;;;;;8.05;6.68;;;6.30;46.20;;;;;;2065690;28;20030;-60
2021/03/07 01:50:31;;;;;;;8.70;7.03;;;6.30;46.20;;;;;;2067717;28;20026;-61
2021/03/07 01:51:52;;;;;;;9.82;7.30;;;6.20;46.30;;;;;;2072058;28;20030;-61
2021/03/07 01:53:15;;;;;;;7.65;6.85;;;6.20;46.10;;;;;;2072144;28;20066;-61
2021/03/07 01:54:36;;;;;;;7.60;6.85;;;6.20;46.20;;;;;;2062928;28;20082;-61
2021/03/07 01:55:58;;;;;;;7.63;6.93;;;6.20;46.10;;;;;;2069836;28;20091;-61
2021/03/07 01:57:23;;;;;;;9.13;6.95;;;6.20;46.10;;;;;;2072621;28;20409;-60
2021/03/07 01:58:48;;;;;;;10.25;7.70;;;6.20;46.20;;;;;;2069645;28;20099;-61
2021/03/07 02:00:10;;;;;;;8.63;7.72;;;6.20;46.40;;;;;;2056217;28;20035;-62
2021/03/07 02:01:31;;;;;;;9.90;7.68;;;6.20;46.30;;;;;;2062608;28;20040;-61
2021/03/07 02:02:52;;;;;;;8.15;6.90;;;6.20;46.40;;;;;;2068028;28;20038;-61
2021/03/07 02:04:13;;;;;;;9.20;6.97;;;6.20;46.40;;;;;;2068773;28;20030;-61
2021/03/07 02:05:34;;;;;;;8.40;7.00;;;6.20;46.50;;;;;;2071196;28;20121;-61
2021/03/07 02:06:55;;;;;;;8.98;7.25;;;6.20;46.70;;;;;;2065613;28;20026;-62
2021/03/07 02:08:17;;;;;;;8.00;7.20;;;6.20;46.60;;;;;;2069808;28;20448;-61
2021/03/07 02:09:38;;;;;;;7.80;6.97;;;6.20;46.70;;;;;;2066509;28;20045;-61
2021/03/07 02:11:00;;;;;;;8.98;7.53;;;6.10;46.60;;;;;;2069863;28;20033;-60
2021/03/07 02:12:22;;;;;;;7.93;7.05;;;6.20;46.70;;;;;;2067739;28;20022;-61
2021/03/07 02:13:44;;;;;;;9.07;7.53;;;6.10;46.70;;;;;;2072221;28;20037;-61
2021/03/07 02:15:11;;;;;;;9.57;7.80;;;6.10;46.80;;;;;;2064270;28;20466;-61
2021/03/07 02:16:33;;;;;;;10.55;7.82;;;6.10;47.00;;;;;;2057878;28;20025;-60
2021/03/07 02:17:55;;;;;;;8.40;7.47;;;6.10;47.00;;;;;;2065124;28;20570;-60
2021/03/07 02:19:20;;;;;;;9.57;7.72;;;6.10;47.10;;;;;;2072566;28;20030;-61
2021/03/07 02:20:47;;;;;;;9.05;7.13;;;6.10;47.10;;;;;;2067699;28;20076;-60
2021/03/07 02:22:13;;;;;;;8.38;7.03;;;6.10;47.10;;;;;;2071115;28;20026;-60
2021/03/07 02:23:48;;;;;;;8.65;7.75;;;6.10;47.00;;;;;;2068897;28;20026;-60
2021/03/07 02:25:12;;;;;;;9.13;7.40;;;6.10;47.00;;;;;;2068729;28;20045;-61
2021/03/07 02:26:36;;;;;;;7.97;7.18;;;6.10;46.90;;;;;;2066886;28;20038;-61
2021/03/07 02:27:58;;;;;;;8.75;7.85;;;6.10;46.90;;;;;;2070750;28;20473;-60
2021/03/07 02:29:21;;;;;;;8.45;7.00;;;6.00;46.80;;;;;;2069826;28;20357;-61
2021/03/07 02:30:43;;;;;;;9.95;7.57;;;6.10;46.80;;;;;;2068595;28;20129;-61
2021/03/07 02:32:09;;;;;;;9.90;7.57;;;6.00;46.80;;;;;;2064816;28;20500;-60
2021/03/07 02:33:41;;;;;;;9.07;7.35;;;6.10;47.20;;;;;;2067237;28;20038;-60
2021/03/07 02:35:06;;;;;;;8.48;7.43;;;6.00;47.50;;;;;;2063558;28;20401;-61
2021/03/07 02:36:32;;;;;;;7.82;7.03;;;6.00;47.10;;;;;;2066875;28;20029;-60
2021/03/07 02:37:57;;;;;;;9.93;7.68;;;6.00;47.10;;;;;;2069063;28;20041;-60
2021/03/07 02:39:26;;;;;;;7.68;6.88;;;6.00;47.00;;;;;;2066795;28;20062;-60
2021/03/07 02:40:50;;;;;;;8.07;7.18;;;6.00;47.40;;;;;;2069507;28;20045;-60
2021/03/07 02:42:20;;;;;;;9.85;7.88;;;6.00;47.30;;;;;;2065829;28;20034;-60
2021/03/07 02:43:43;;;;;;;;;;;6.00;47.70;;;;;;2069867;28;20034;-60
2021/03/07 02:45:07;;;;;;;7.25;6.55;;;6.00;48.00;;;;;;2064089;28;19925;-60
2021/03/07 02:46:31;;;;;;;8.05;7.03;;;6.00;47.00;;;;;;2068317;28;20033;-60
2021/03/07 02:47:54;;;;;;;8.82;7.35;;;6.00;47.00;;;;;;2068812;28;20038;-60
2021/03/07 02:49:18;;;;;;;9.85;7.40;;;6.00;47.00;;;;;;2072113;28;20113;-60
2021/03/07 02:50:41;;;;;;;8.95;7.72;;;5.90;47.20;;;;;;2068925;28;20030;-60
2021/03/07 02:52:04;;;;;;;10.27;8.10;;;5.90;47.10;;;;;;2068557;28;20030;-59
2021/03/07 02:53:28;;;;;;;10.40;7.28;;;5.90;47.20;;;;;;2069910;28;20087;-61
2021/03/07 02:54:54;;;;;;;7.75;7.05;;;5.90;47.30;;;;;;2069194;28;20034;-60
2021/03/07 02:56:20;;;;;;;8.98;7.47;;;5.90;47.60;;;;;;2065347;28;20085;-61
2021/03/07 02:57:44;;;;;;;8.02;6.97;;;5.90;47.60;;;;;;2069854;28;20551;-61
2021/03/07 02:59:09;;;;;;;8.85;7.15;;;5.80;47.50;;;;;;2072505;28;20524;-61
2021/03/07 03:00:32;;;;;;;10.57;7.30;;;5.90;47.70;;;;;;2066970;28;20513;-62
2021/03/07 03:01:58;;;;;;;9.10;7.50;;;5.80;47.70;;;;;;2069983;28;20528;-61
2021/03/07 03:03:26;;;;;;;10.13;7.63;;;5.80;48.00;;;;;;2062248;28;20111;-61
2021/03/07 03:04:48;;;;;;;8.43;7.47;;;5.80;47.90;;;;;;2062393;28;20042;-62
2021/03/07 03:06:14;;;;;;;8.65;7.68;;;5.80;47.70;;;;;;2068857;28;20038;-61
2021/03/07 03:07:36;;;;;;;8.50;7.40;;;5.80;47.70;;;;;;2069531;28;20456;-61
2021/03/07 03:08:59;;;;;;;9.75;7.70;;;5.80;47.70;;;;;;2071091;28;20047;-61
2021/03/07 03:10:21;;;;;;;10.75;7.90;;;5.80;47.90;;;;;;2066959;28;20049;-61
2021/03/07 03:11:42;;;;;;;9.75;7.68;;;5.70;47.80;;;;;;2065871;28;20696;-60
2021/03/07 03:13:04;;;;;;;12.30;7.90;;;5.70;47.90;;;;;;2067689;28;20056;-61
2021/03/07 03:14:26;;;;;;;9.75;7.72;;;5.70;47.80;;;;;;2067543;28;20076;-61
2021/03/07 03:15:48;;;;;;;9.60;7.22;;;5.70;47.80;;;;;;2067739;28;20382;-61
2021/03/07 03:17:10;;;;;;;9.50;7.80;;;5.70;47.80;;;;;;2064951;28;20680;-60
2021/03/07 03:18:34;;;;;;;8.52;7.20;;;5.70;47.80;;;;;;2068958;28;20034;-61
2021/03/07 03:19:57;;;;;;;8.90;7.88;;;5.70;47.80;;;;;;2070508;28;20034;-61
2021/03/07 03:21:18;;;;;;;7.75;6.97;;;5.70;47.70;;;;;;2071529;28;20643;-60
2021/03/07 03:22:40;;;;;;;10.30;7.85;;;5.70;47.70;;;;;;2064117;28;20049;-60
2021/03/07 03:24:02;;;;;;;7.95;7.15;;;5.70;47.80;;;;;;2070385;28;20233;-60
2021/03/07 03:25:23;;;;;;;9.82;7.93;;;5.70;47.80;;;;;;2065485;28;20381;-60
2021/03/07 03:26:44;;;;;;;8.68;7.53;;;5.70;47.70;;;;;;2068489;28;20022;-62
2021/03/07 03:28:06;;;;;;;9.07;7.82;;;5.60;47.70;;;;;;2070528;28;20535;-62
2021/03/07 03:29:31;;;;;;;8.90;7.72;;;5.60;47.70;;;;;;2070286;28;20087;-61
2021/03/07 03:30:53;;;;;;;10.45;7.75;;;5.60;47.80;;;;;;2067541;28;20042;-61
2021/03/07 03:32:14;;;;;;;8.90;7.32;;;5.60;47.70;;;;;;2065293;28;20046;-60
2021/03/07 03:33:35;;;;;;;8.63;6.95;;;5.60;47.70;;;;;;2071979;28;20475;-60
2021/03/07 03:34:57;;;;;;;8.75;7.82;;;5.60;47.80;;;;;;2069551;28;20106;-60
2021/03/07 03:36:18;;;;;;;8.98;7.80;;;5.60;47.80;;;;;;2063684;28;20513;-61
2021/03/07 03:37:41;;;;;;;7.97;7.18;;;5.60;47.70;;;;;;2069571;28;20034;-61
2021/03/07 03:39:18;;;;;;;10.10;7.38;;;5.60;47.80;;;;;;2068845;28;20559;-61
2021/03/07 03:40:40;;;;;;;8.50;6.90;;;5.60;48.10;;;;;;2069852;28;20037;-61
2021/03/07 03:42:04;;;;;;;10.40;7.90;;;5.60;47.80;;;;;;2071034;28;20445;-61
2021/03/07 03:43:27;;;;;;;8.57;7.50;;;5.50;47.80;;;;;;2071421;28;20495;-61
2021/03/07 03:44:49;;;;;;;10.15;7.55;;;5.50;47.70;;;;;;2058282;28;20366;-62
2021/03/07 03:46:11;;;;;;;8.73;7.68;;;5.50;47.50;;;;;;2065611;28;20069;-61
2021/03/07 03:47:33;;;;;;;9.77;8.02;;;5.50;47.40;;;;;;2067733;28;20026;-60
2021/03/07 03:49:03;;;;;;;8.80;7.93;;;5.50;47.60;;;;;;2071209;28;20036;-60
2021/03/07 03:50:26;;;;;;;8.13;7.40;;;5.40;48.00;;;;;;2066771;28;20037;-60
2021/03/07 03:51:51;;;;;;;8.98;8.07;;;5.40;47.80;;;;;;2066852;28;20528;-60
2021/03/07 03:53:18;;;;;;;9.25;8.05;;;5.40;47.70;;;;;;2068291;28;20493;-60
2021/03/07 03:54:44;;;;;;;9.60;7.68;;;5.30;48.10;;;;;;2066948;28;20034;-60
2021/03/07 03:56:07;;;;;;;11.32;7.85;;;5.30;48.20;;;;;;2063906;28;20049;-60
2021/03/07 03:57:30;;;;;;;9.38;7.00;;;5.30;48.10;;;;;;2065607;28;20085;-60
2021/03/07 03:58:52;;;;;;;10.57;7.35;;;5.30;48.00;;;;;;2069276;28;20030;-60
2021/03/07 04:00:17;;;;;;;9.45;8.05;;;5.30;47.90;;;;;;2065851;28;20038;-60
2021/03/07 04:01:38;;;;;;;8.10;7.30;;;5.30;48.00;;;;;;2066345;28;20500;-60
2021/03/07 04:03:00;;;;;;;8.52;7.25;;;5.20;47.90;;;;;;2070423;28;20570;-60
2021/03/07 04:04:21;;;;;;;8.80;7.90;;;5.20;47.90;;;;;;2065657;28;20469;-60
2021/03/07 04:05:48;;;;;;;9.35;7.82;;;5.20;47.90;;;;;;2068602;28;20080;-61
2021/03/07 04:07:09;;;;;;;10.20;7.85;;;5.20;48.30;;;;;;2066312;28;20571;-61
2021/03/07 04:08:30;;;;;;;10.73;8.25;;;5.20;48.20;;;;;;2067074;28;20026;-59
2021/03/07 04:09:53;;;;;;;9.60;7.47;;;5.20;48.30;;;;;;2069279;28;20033;-62
2021/03/07 04:11:14;;;;;;;8.88;7.28;;;5.20;48.30;;;;;;2070433;28;20057;-60
2021/03/07 04:12:40;;;;;;;8.13;7.32;;;5.20;48.10;;;;;;2065181;28;20126;-61
2021/03/07 04:14:01;;;;;;;10.75;7.32;;;5.20;48.30;;;;;;2068720;28;20038;-60
2021/03/07 04:15:23;;;;;;;8.15;7.22;;;5.20;48.20;;;;;;2065306;28;20038;-60
2021/03/07 04:16:47;;;;;;;9.75;7.97;;;5.10;48.10;;;;;;2070997;28;20034;-61
2021/03/07 04:18:12;;;;;;;7.72;6.93;;;5.20;48.20;;;;;;2061789;28;20034;-61
2021/03/07 04:19:34;;;;;;;8.82;7.35;;;5.10;48.10;;;;;;2067265;28;20030;-61
2021/03/07 04:20:59;;;;;;;10.85;8.35;;;5.10;48.20;;;;;;2070089;28;20110;-61
2021/03/07 04:22:21;;;;;;;8.45;7.55;;;5.10;48.40;;;;;;2070044;28;20903;-61
2021/03/07 04:23:42;;;;;;;8.95;7.38;;;5.10;48.40;;;;;;2067595;28;20687;-61
2021/03/07 04:25:04;;;;;;;7.90;7.18;;;5.10;48.50;;;;;;2067843;28;20780;-60
2021/03/07 04:26:25;;;;;;;9.25;7.63;;;5.10;48.60;;;;;;2071266;28;20026;-60
2021/03/07 04:27:47;;;;;;;9.05;7.40;;;5.10;48.60;;;;;;2065359;28;20110;-61
2021/03/07 04:29:08;;;;;;;7.93;7.22;;;5.10;48.50;;;;;;2070087;28;20042;-61
2021/03/07 04:30:30;;;;;;;9.57;7.82;;;5.10;48.40;;;;;;2069599;28;20022;-60
2021/03/07 04:31:52;;;;;;;9.10;7.13;;;5.00;48.30;;;;;;2071460;28;20026;-61
2021/03/07 04:33:13;;;;;;;8.52;7.43;;;5.00;48.30;;;;;;2068043;28;20034;-60
2021/03/07 04:34:35;;;;;;;9.13;7.00;;;5.00;48.30;;;;;;2067355;28;20523;-60
2021/03/07 04:35:58;;;;;;;11.77;7.28;;;5.00;48.30;;;;;;2064385;28;20477;-60
2021/03/07 04:37:19;;;;;;;8.43;7.57;;;5.00;48.20;;;;;;2066518;28;20065;-60
2021/03/07 04:38:40;;;;;;;7.95;7.15;;;5.00;48.20;;;;;;2068167;28;20034;-61
2021/03/07 04:40:01;;;;;;;8.85;7.15;;;5.00;48.20;;;;;;2071129;28;20038;-60
2021/03/07 04:41:22;;;;;;;8.60;7.65;;;5.00;48.20;;;;;;2068143;28;20026;-60
2021/03/07 04:42:43;;;;;;;8.60;7.40;;;5.00;48.20;;;;;;2068232;28;20034;-60
2021/03/07 04:44:05;;;;;;;9.00;7.40;;;5.00;48.30;;;;;;2058697;28;20043;-60
2021/03/07 04:45:26;;;;;;;9.02;8.13;;;5.00;48.20;;;;;;2065697;28;20028;-60
2021/03/07 04:46:47;;;;;;;8.85;7.75;;;5.00;48.30;;;;;;2071830;28;20030;-60
2021/03/07 04:48:08;;;;;;;9.15;8.15;;;5.00;48.30;;;;;;2072090;28;20323;-61
2021/03/07 04:49:29;;;;;;;8.48;7.47;;;4.90;48.30;;;;;;2068115;28;20088;-59
2021/03/07 04:50:50;;;;;;;8.90;7.25;;;4.90;48.30;;;;;;2067826;28;20035;-62
2021/03/07 04:52:11;;;;;;;8.18;7.25;;;4.90;48.40;;;;;;2072234;28;20041;-60
2021/03/07 04:53:32;;;;;;;8.40;7.50;;;4.90;48.50;;;;;;2071488;28;20022;-60
2021/03/07 04:54:53;;;;;;;8.77;7.88;;;4.90;48.40;;;;;;2064788;28;20256;-62
2021/03/07 04:56:14;;;;;;;8.07;7.28;;;4.90;48.30;;;;;;2066716;28;20038;-61
2021/03/07 04:57:35;;;;;;;9.90;7.53;;;4.90;48.30;;;;;;2069244;28;20030;-61
2021/03/07 04:58:56;;;;;;;9.43;7.65;;;4.90;48.40;;;;;;2070625;28;20038;-61
2021/03/07 05:00:18;;;;;;;8.35;7.53;;;4.90;48.40;;;;;;2065437;28;20048;-61
2021/03/07 05:01:39;;;;;;;7.53;6.82;;;4.90;48.60;;;;;;2069721;28;20029;-61
2021/03/07 05:02:59;;;;;;;9.90;7.85;;;4.90;48.50;;;;;;2071991;28;20053;-61
2021/03/07 05:04:20;;;;;;;8.25;7.28;;;4.90;48.50;;;;;;2068319;28;20054;-61
2021/03/07 05:05:41;;;;;;;8.93;7.28;;;4.80;48.50;;;;;;2072213;28;20034;-61
2021/03/07 05:07:02;;;;;;;9.10;7.25;;;4.80;48.50;;;;;;2068970;28;20077;-61
2021/03/07 05:08:25;;;;;;;8.70;7.70;;;4.80;48.40;;;;;;2072176;28;20057;-61
2021/03/07 05:09:46;;;;;;;8.90;7.32;;;4.80;48.50;;;;;;2071258;28;20030;-61
2021/03/07 05:11:06;;;;;;;9.25;8.35;;;4.80;48.50;;;;;;2070749;28;20026;-61
2021/03/07 05:12:27;;;;;;;10.07;7.82;;;4.80;48.60;;;;;;2067109;28;20373;-62
2021/03/07 05:13:49;;;;;;;11.18;8.63;;;4.80;48.70;;;;;;2069219;28;20045;-61
2021/03/07 05:15:10;;;;;;;8.15;7.35;;;4.80;48.70;;;;;;2069750;28;20049;-62
2021/03/07 05:16:32;;;;;;;9.82;8.20;;;4.80;48.70;;;;;;2072177;28;20527;-61
2021/03/07 05:17:53;;;;;;;8.65;7.85;;;4.80;48.80;;;;;;2072279;28;20134;-60
2021/03/07 05:19:14;;;;;;;7.72;7.00;;;4.80;48.80;;;;;;2070877;28;20031;-61
2021/03/07 05:20:35;;;;;;;10.30;7.90;;;4.70;48.80;;;;;;2072553;28;20457;-61
2021/03/07 05:21:55;;;;;;;8.35;7.55;;;4.80;48.80;;;;;;2071836;28;20033;-61
2021/03/07 05:23:16;;;;;;;9.02;8.05;;;4.70;49.30;;;;;;2067530;28;20432;-61
2021/03/07 05:24:39;;;;;;;10.45;8.10;;;4.70;48.90;;;;;;2068812;28;20408;-60
2021/03/07 05:26:00;;;;;;;10.82;8.50;;;4.70;49.10;;;;;;2063404;28;20026;-61
2021/03/07 05:27:21;;;;;;;9.15;8.20;;;4.70;49.20;;;;;;2064611;28;20491;-61
2021/03/07 05:28:42;;;;;;;11.63;8.02;;;4.70;49.30;;;;;;2067261;28;20027;-61
2021/03/07 05:30:04;;;;;;;8.32;7.47;;;4.70;49.40;;;;;;2071907;28;20536;-62
2021/03/07 05:31:25;;;;;;;8.95;7.93;;;4.70;49.30;;;;;;2070738;28;20068;-61
2021/03/07 05:32:47;;;;;;;9.98;7.50;;;4.60;49.10;;;;;;2069899;28;20073;-61
2021/03/07 05:34:07;;;;;;;10.70;8.40;;;4.60;49.00;;;;;;2069957;28;20045;-61
2021/03/07 05:35:28;;;;;;;9.02;7.68;;;4.60;49.00;;;;;;2069166;28;20640;-61
2021/03/07 05:36:49;;;;;;;8.68;7.78;;;4.60;49.00;;;;;;2071056;28;20127;-61
2021/03/07 05:38:11;;;;;;;8.82;7.93;;;4.60;49.00;;;;;;2071351;28;20045;-61
2021/03/07 05:39:32;;;;;;;8.98;8.00;;;4.60;49.10;;;;;;2069129;28;20030;-62
2021/03/07 05:40:54;;;;;;;9.15;7.43;;;4.60;49.10;;;;;;2065911;28;20073;-60
2021/03/07 05:42:15;;;;;;;9.30;8.05;;;4.60;49.40;;;;;;2071309;28;20103;-61
2021/03/07 05:43:38;;;;;;;10.23;8.57;;;4.60;49.40;;;;;;2070888;28;20026;-61
2021/03/07 05:44:59;;;;;;;8.55;7.70;;;4.60;49.50;;;;;;2067824;28;20064;-61
2021/03/07 05:46:20;;;;;;;9.68;7.93;;;4.60;49.40;;;;;;2067262;28;20089;-61
2021/03/07 05:47:41;;;;;;;9.52;8.52;;;4.60;49.40;;;;;;2068749;28;20025;-61
2021/03/07 05:49:04;;;;;;;11.15;8.75;;;4.60;49.30;;;;;;2071332;28;20073;-61
2021/03/07 05:50:26;;;;;;;9.80;8.52;;;4.60;49.60;;;;;;2066304;28;20065;-61
2021/03/07 05:51:47;;;;;;;8.88;7.97;;;4.60;49.60;;;;;;2072340;28;20026;-61
2021/03/07 05:53:08;;;;;;;10.27;8.57;;;4.60;49.40;;;;;;2064297;28;20736;-62
2021/03/07 05:54:30;;;;;;;12.52;8.20;;;4.50;49.40;;;;;;2072022;28;20034;-61
2021/03/07 05:55:51;;;;;;;9.55;8.10;;;4.50;49.50;;;;;;2070337;28;20065;-62
2021/03/07 05:57:14;;;;;;;9.63;7.57;;;4.50;49.50;;;;;;2071000;28;20044;-61
2021/03/07 05:58:36;;;;;;;9.32;8.43;;;4.50;49.60;;;;;;2069242;28;20040;-61
2021/03/07 06:00:00;;;;;;;9.55;7.63;;;4.50;49.60;;;;;;2070964;28;20113;-61
2021/03/07 06:01:21;;;;;;;8.85;7.95;;;4.50;49.70;;;;;;2067641;28;20034;-60
2021/03/07 06:02:42;;;;;;;8.68;7.78;;;4.50;49.50;;;;;;2061734;28;20038;-60
2021/03/07 06:04:04;;;;;;;8.73;7.93;;;4.50;49.40;;;;;;2065373;28;20065;-61
2021/03/07 06:05:25;;;;;;;9.55;8.18;;;4.50;49.40;;;;;;2071736;28;20175;-61
2021/03/07 06:06:46;;;;;;;9.77;7.80;;;4.50;49.50;;;;;;2068959;28;20037;-61
2021/03/07 06:08:07;;;;;;;8.40;7.55;;;4.50;49.60;;;;;;2065449;28;20030;-61
2021/03/07 06:09:28;;;;;;;8.88;7.93;;;4.50;49.70;;;;;;2066629;28;20128;-61
2021/03/07 06:10:49;;;;;;;10.25;8.55;;;4.40;49.90;;;;;;2068879;28;20026;-61
2021/03/07 06:12:18;;;;;;;13.30;8.30;;;4.40;50.00;;;;;;2065118;28;20094;-61
2021/03/07 06:13:40;;;;;;;9.85;8.52;;;4.40;50.10;;;;;;2068965;28;20030;-61
2021/03/07 06:15:02;;;;;;;9.20;8.00;;;4.40;49.80;;;;;;2065862;28;20041;-61
2021/03/07 06:16:23;;;;;;;10.68;8.27;;;4.40;49.80;;;;;;2066993;28;20053;-60
2021/03/07 06:17:45;;;;;;;9.52;8.52;;;4.40;49.80;;;;;;2068448;28;20045;-61
2021/03/07 06:19:06;;;;;;;11.77;8.50;;;4.40;50.00;;;;;;2068043;28;20026;-61
2021/03/07 06:20:29;;;;;;;10.27;8.80;;;4.40;50.00;;;;;;2071932;28;20334;-61
2021/03/07 06:21:50;;;;;;;11.52;9.38;;;4.40;50.40;;;;;;2071059;28;20117;-61
2021/03/07 06:23:11;;;;;;;11.65;9.40;;;4.40;50.30;;;;;;2071136;28;20042;-61
2021/03/07 06:24:33;;;;;;;9.82;8.25;;;4.40;50.30;;;;;;2069945;28;20037;-61
2021/03/07 06:25:54;;;;;;;10.20;9.10;;;4.40;50.40;;;;;;2066392;28;20030;-61
2021/03/07 06:27:17;;;;;;;9.70;8.80;;;4.40;50.30;;;;;;2070837;28;20056;-61
2021/03/07 06:28:38;;;;;;;9.95;8.90;;;4.40;50.40;;;;;;2071081;28;20044;-61
2021/03/07 06:30:20;;;;;;;10.15;9.10;;;4.40;50.40;;;;;;2071208;28;20061;-61
2021/03/07 06:31:41;;;;;;;9.93;8.32;;;4.40;51.30;;;;;;2068725;28;20615;-61
2021/03/07 06:33:03;;;;;;;10.07;8.98;;;4.40;50.60;;;;;;2068800;28;20038;-61
2021/03/07 06:34:23;;;;;;;10.27;8.45;;;4.40;50.50;;;;;;2066290;28;20120;-61
2021/03/07 06:35:44;;;;;;;9.63;8.27;;;4.40;50.50;;;;;;2068826;28;20026;-60
2021/03/07 06:37:05;;;;;;;8.68;7.85;;;4.40;50.40;;;;;;2070117;28;20033;-61
2021/03/07 06:38:43;;;;;;;9.57;7.82;;;4.40;50.40;;;;;;2070677;28;20037;-61
2021/03/07 06:40:35;;;;;;;9.52;8.50;;;4.40;50.90;;;;;;2064386;28;20042;-61
2021/03/07 06:42:07;;;;;;;9.68;8.60;;;4.40;51.20;;;;;;2064274;28;20038;-61
2021/03/07 06:43:30;;;;;;;10.10;9.10;;;4.50;51.30;;;;;;2070909;28;20670;-60
2021/03/07 06:44:53;;;;;;;11.55;8.48;;;4.40;50.70;;;;;;2068063;28;20095;-60
2021/03/07 06:46:33;;;;;;;10.05;8.73;;;4.40;50.80;;;;;;2071572;28;20065;-61
2021/03/07 06:47:55;;;;;;;;;;;4.50;51.20;;;;;;2071844;28;20036;-60
2021/03/07 06:49:27;;;;;;;9.52;8.50;;;4.50;51.40;;;;;;2068633;28;19909;-60
2021/03/07 06:50:55;;;;;;;8.77;7.88;;;4.50;51.00;;;;;;2070020;28;20026;-61
2021/03/07 06:52:19;;;;;;;9.18;8.27;;;4.50;51.10;;;;;;2071934;28;20025;-61
2021/03/07 06:53:44;;;;;;;11.45;9.57;;;4.50;51.00;;;;;;2068181;28;20124;-62
2021/03/07 06:55:12;;;;;;;10.10;8.75;;;4.50;51.00;;;;;;2069929;28;20081;-61
2021/03/07 06:56:41;;;;;;;11.15;8.63;;;4.50;51.40;;;;;;2066979;28;20491;-62
2021/03/07 06:58:16;;;;;;;10.60;9.50;;;4.50;51.70;;;;;;2068289;28;20022;-60
2021/03/07 06:59:38;;;;;;;10.27;8.60;;;4.50;51.80;;;;;;2068260;28;20022;-60
2021/03/07 07:00:59;;;;;;;10.43;9.13;;;4.50;51.40;;;;;;2068017;28;20070;-60
2021/03/07 07:02:20;;;;;;;10.75;9.32;;;4.50;51.60;;;;;;2065068;28;20042;-62
2021/03/07 07:03:56;;;;;;;11.23;10.00;;;4.50;51.70;;;;;;2069521;28;20061;-60
2021/03/07 07:05:40;;;;;;;11.75;9.90;;;4.50;52.40;;;;;;2071335;28;20538;-63
2021/03/07 07:07:03;;;;;;;9.98;8.38;;;4.60;52.40;;;;;;2066368;28;20112;-61
2021/03/07 07:08:47;;;;;;;10.82;9.50;;;4.60;51.90;;;;;;2066223;28;20045;-61
2021/03/07 07:10:08;;;;;;;12.27;9.20;;;4.60;52.60;;;;;;2070183;28;20030;-61
2021/03/07 07:11:41;;;;;;;13.73;9.68;;;4.60;51.90;;;;;;2065321;28;20030;-62
2021/03/07 07:13:05;;;;;;;10.18;9.05;;;4.60;52.50;;;;;;2072214;28;20417;-61
2021/03/07 07:14:30;;;;;;;13.15;10.32;;;4.60;52.30;;;;;;2067078;28;20040;-61
2021/03/07 07:16:04;;;;;;;12.80;9.85;;;4.60;52.50;;;;;;2071129;28;20519;-61